Time;durP1;ratioP1;P1;durP2;ratioP2;P2;SDS_P1;SDS_P2;PMS_P1;PMS_P2;Temp;Humidity;BMP_temperature;BMP_pressure;BME280_temperature;BME280_humidity;BME280_pressure;Samples;Min_cycle;Max_cycle;Signal;HPM_P1;HPM_P2
2023/06/03 00:00:57;;;;;;;2.47;2.37;;;23.50;38.00;;;;;;4988646;28;20950;-78
2023/06/03 00:03:27;;;;;;;2.87;2.20;;;23.50;38.10;;;;;;4993723;28;20445;-79
2023/06/03 00:05:55;;;;;;;3.67;2.23;;;23.40;38.20;;;;;;4994644;28;20553;-80
2023/06/03 00:08:24;;;;;;;3.23;2.23;;;23.40;38.20;;;;;;4996257;28;20445;-80
2023/06/03 00:10:52;;;;;;;2.03;1.93;;;23.40;38.40;;;;;;4994758;28;20412;-81
2023/06/03 00:13:21;;;;;;;3.23;2.33;;;23.40;38.40;;;;;;4996100;28;20445;-82
2023/06/03 00:15:49;;;;;;;2.20;2.10;;;23.40;38.40;;;;;;4995403;28;20477;-81
2023/06/03 00:18:17;;;;;;;2.00;1.90;;;23.30;38.40;;;;;;4996887;28;20460;-82
2023/06/03 00:20:47;;;;;;;2.33;2.00;;;23.30;38.60;;;;;;4997813;28;20450;-81
2023/06/03 00:23:16;;;;;;;2.70;2.50;;;23.30;38.50;;;;;;4995241;28;20481;-82
2023/06/03 00:25:44;;;;;;;6.33;2.60;;;23.30;38.60;;;;;;4994777;28;20479;-81
2023/06/03 00:28:12;;;;;;;1.90;1.80;;;23.20;38.50;;;;;;4999812;28;20449;-80
2023/06/03 00:30:40;;;;;;;2.30;2.10;;;23.20;38.90;;;;;;5002183;28;20445;-81
2023/06/03 00:33:08;;;;;;;2.00;1.90;;;23.20;38.80;;;;;;4998000;28;20452;-81
2023/06/03 00:35:37;;;;;;;2.13;1.93;;;23.10;38.80;;;;;;5003362;28;20512;-81
2023/06/03 00:38:06;;;;;;;2.87;2.10;;;23.10;38.80;;;;;;4991983;28;20461;-82
2023/06/03 00:40:36;;;;;;;2.60;2.00;;;23.10;38.80;;;;;;4997101;28;20462;-82
2023/06/03 00:43:04;;;;;;;1.80;1.70;;;23.10;39.00;;;;;;4997928;28;20499;-81
2023/06/03 00:45:32;;;;;;;1.80;1.70;;;23.00;39.10;;;;;;4998580;28;20466;-81
2023/06/03 00:48:00;;;;;;;2.00;1.90;;;23.00;39.10;;;;;;4996407;28;20449;-81
2023/06/03 00:50:28;;;;;;;2.40;2.23;;;23.00;39.10;;;;;;5003763;28;20443;-80
2023/06/03 00:52:56;;;;;;;2.20;2.10;;;23.00;39.30;;;;;;4999852;28;20481;-81
2023/06/03 00:55:26;;;;;;;2.63;1.90;;;23.00;39.30;;;;;;5001750;28;20511;-82
2023/06/03 00:57:54;;;;;;;2.30;2.20;;;23.00;39.40;;;;;;5001236;28;20450;-80
2023/06/03 01:00:22;;;;;;;2.80;1.80;;;22.90;39.30;;;;;;4992662;28;20452;-81
2023/06/03 01:02:50;;;;;;;2.40;2.00;;;22.90;39.40;;;;;;5003533;28;20477;-81
2023/06/03 01:05:19;;;;;;;4.03;1.93;;;22.90;39.40;;;;;;5005010;28;20464;-81
2023/06/03 01:07:52;;;;;;;2.67;2.00;;;22.80;39.60;;;;;;5003504;28;20487;-81
2023/06/03 01:10:22;;;;;;;7.27;4.80;;;22.80;39.50;;;;;;5003407;28;20448;-81
2023/06/03 01:12:55;;;;;;;20.87;14.13;;;22.80;39.60;;;;;;4998942;28;20461;-82
2023/06/03 01:15:23;;;;;;;19.97;14.13;;;22.70;39.80;;;;;;5001512;28;20475;-81
2023/06/03 01:17:52;;;;;;;22.40;15.00;;;22.70;39.60;;;;;;4994639;28;20424;-81
2023/06/03 01:20:26;;;;;;;24.50;16.20;;;22.70;39.70;;;;;;4998581;28;20463;-80
2023/06/03 01:22:58;;;;;;;22.87;15.40;;;22.70;39.90;;;;;;4996097;28;20510;-82
2023/06/03 01:25:28;;;;;;;21.97;15.90;;;22.70;40.00;;;;;;5001141;28;20493;-82
2023/06/03 01:27:57;;;;;;;24.93;17.90;;;22.70;40.00;;;;;;5001071;28;20450;-82
2023/06/03 01:30:25;;;;;;;24.00;17.20;;;22.60;39.80;;;;;;4994259;28;20478;-81
2023/06/03 01:32:54;;;;;;;28.57;15.27;;;22.60;40.10;;;;;;4998135;28;20453;-82
2023/06/03 01:35:22;;;;;;;22.70;16.23;;;22.60;40.00;;;;;;4992480;28;20536;-82
2023/06/03 01:37:50;;;;;;;23.77;16.50;;;22.60;40.00;;;;;;5002946;28;20439;-82
2023/06/03 01:40:18;;;;;;;22.90;16.00;;;22.60;40.10;;;;;;4997518;28;20444;-82
2023/06/03 01:42:47;;;;;;;21.23;15.63;;;22.60;40.10;;;;;;4994167;28;20449;-82
2023/06/03 01:45:15;;;;;;;22.97;16.50;;;22.50;40.20;;;;;;4997660;28;20488;-83
2023/06/03 01:47:43;;;;;;;22.17;15.67;;;22.50;40.20;;;;;;4997474;28;20449;-81
2023/06/03 01:50:11;;;;;;;20.10;15.00;;;22.50;40.30;;;;;;4999945;28;20431;-82
2023/06/03 01:52:39;;;;;;;25.60;15.40;;;22.40;40.30;;;;;;4999246;28;20508;-82
2023/06/03 01:55:08;;;;;;;20.23;14.93;;;22.40;40.30;;;;;;4997834;28;20473;-82
2023/06/03 01:57:36;;;;;;;24.87;15.07;;;22.40;40.40;;;;;;4999923;28;20476;-81
2023/06/03 02:00:07;;;;;;;22.10;14.63;;;22.40;40.40;;;;;;4993106;28;20437;-82
2023/06/03 02:02:35;;;;;;;23.60;14.93;;;22.40;40.40;;;;;;4998465;28;20472;-81
2023/06/03 02:05:04;;;;;;;20.03;14.90;;;22.30;40.40;;;;;;4992890;28;20462;-80
2023/06/03 02:07:32;;;;;;;19.13;13.90;;;22.30;40.50;;;;;;4997133;28;20442;-82
2023/06/03 02:10:00;;;;;;;18.73;13.60;;;22.30;40.60;;;;;;4996234;28;20508;-81
2023/06/03 02:12:28;;;;;;;20.50;13.97;;;22.30;40.60;;;;;;4989203;28;20464;-80
2023/06/03 02:14:57;;;;;;;19.07;13.37;;;22.30;40.70;;;;;;4996466;28;20472;-82
2023/06/03 02:17:26;;;;;;;18.47;12.90;;;22.30;40.70;;;;;;4998036;28;20473;-79
2023/06/03 02:19:55;;;;;;;18.10;12.57;;;22.20;40.60;;;;;;4999099;28;20548;-78
2023/06/03 02:22:23;;;;;;;16.00;11.93;;;22.20;40.70;;;;;;4997311;28;20483;-80
2023/06/03 02:24:51;;;;;;;15.97;11.93;;;22.20;40.60;;;;;;4991469;28;20519;-80
2023/06/03 02:27:20;;;;;;;17.10;12.13;;;22.10;40.80;;;;;;4997332;28;20484;-80
2023/06/03 02:29:50;;;;;;;16.67;11.73;;;22.20;40.90;;;;;;4991003;28;20445;-81
2023/06/03 02:32:18;;;;;;;17.20;11.17;;;22.10;40.80;;;;;;4997806;28;20469;-82
2023/06/03 02:34:48;;;;;;;16.80;10.40;;;22.10;40.90;;;;;;4994565;28;20480;-81
2023/06/03 02:37:16;;;;;;;15.00;11.40;;;22.10;40.90;;;;;;4995312;28;20499;-82
2023/06/03 02:39:44;;;;;;;14.60;10.77;;;22.00;40.80;;;;;;4990046;28;20457;-81
2023/06/03 02:42:12;;;;;;;13.70;10.00;;;22.00;41.00;;;;;;5001719;28;20520;-80
2023/06/03 02:44:40;;;;;;;13.80;10.00;;;22.00;41.00;;;;;;4985861;28;20452;-81
2023/06/03 02:47:08;;;;;;;12.90;9.67;;;22.00;41.10;;;;;;4991950;28;20449;-81
2023/06/03 02:49:37;;;;;;;15.03;9.63;;;22.00;41.20;;;;;;5000837;28;20474;-81
2023/06/03 02:52:07;;;;;;;13.13;9.33;;;22.00;41.10;;;;;;5000936;28;20449;-81
2023/06/03 02:54:35;;;;;;;12.60;9.03;;;22.00;41.10;;;;;;4999389;28;20449;-82
2023/06/03 02:57:04;;;;;;;11.00;8.57;;;21.90;41.20;;;;;;4996058;28;20473;-80
2023/06/03 02:59:32;;;;;;;14.10;9.43;;;21.90;41.20;;;;;;4980574;28;20433;-80
2023/06/03 03:02:00;;;;;;;9.90;8.30;;;21.90;41.20;;;;;;4995196;28;20453;-81
2023/06/03 03:04:33;;;;;;;12.17;9.47;;;21.90;41.10;;;;;;4996153;28;20444;-81
2023/06/03 03:07:01;;;;;;;10.57;8.17;;;21.90;41.30;;;;;;4997095;28;20491;-82
2023/06/03 03:09:31;;;;;;;10.23;7.60;;;21.90;41.30;;;;;;4991882;28;20437;-81
2023/06/03 03:11:59;;;;;;;9.37;7.70;;;21.80;41.30;;;;;;4990928;28;20500;-81
2023/06/03 03:14:28;;;;;;;9.13;7.23;;;21.80;41.30;;;;;;4995249;28;20488;-81
2023/06/03 03:16:56;;;;;;;9.50;7.90;;;21.80;41.40;;;;;;4990734;28;20875;-80
2023/06/03 03:19:24;;;;;;;11.73;7.60;;;21.80;41.40;;;;;;4996672;28;20536;-78
2023/06/03 03:21:52;;;;;;;8.80;7.27;;;21.70;41.50;;;;;;4994503;28;20524;-80
2023/06/03 03:24:22;;;;;;;9.10;7.47;;;21.70;41.50;;;;;;4994269;28;20481;-79
2023/06/03 03:26:51;;;;;;;9.33;7.17;;;21.70;41.50;;;;;;4995702;28;20519;-80
2023/06/03 03:29:23;;;;;;;12.70;7.20;;;21.70;41.60;;;;;;4987287;28;20453;-81
2023/06/03 03:31:51;;;;;;;8.30;6.70;;;21.60;41.50;;;;;;4993645;28;20577;-81
2023/06/03 03:34:19;;;;;;;6.90;5.73;;;21.60;41.80;;;;;;4993650;28;20446;-81
2023/06/03 03:36:47;;;;;;;8.20;6.10;;;21.60;41.70;;;;;;4993342;28;20496;-80
2023/06/03 03:39:16;;;;;;;7.80;6.63;;;21.60;41.70;;;;;;4985717;28;20492;-79
2023/06/03 03:41:44;;;;;;;6.93;5.80;;;21.60;41.80;;;;;;4995170;28;20454;-80
2023/06/03 03:44:14;;;;;;;6.23;5.60;;;21.60;41.80;;;;;;4993658;28;20473;-81
2023/06/03 03:46:46;;;;;;;6.30;5.67;;;21.60;41.70;;;;;;4993108;28;20459;-81
2023/06/03 03:49:15;;;;;;;6.57;5.90;;;21.60;41.90;;;;;;4985816;28;20454;-82
2023/06/03 03:51:43;;;;;;;5.23;4.77;;;21.50;41.80;;;;;;4985005;28;20476;-81
2023/06/03 03:54:12;;;;;;;7.30;5.80;;;21.50;41.80;;;;;;4989672;28;20445;-81
2023/06/03 03:56:40;;;;;;;5.77;5.17;;;21.60;42.00;;;;;;4995028;28;20466;-81
2023/06/03 03:59:08;;;;;;;6.43;5.33;;;21.50;41.80;;;;;;4993237;28;20481;-81
2023/06/03 04:01:39;;;;;;;6.80;5.43;;;21.50;41.80;;;;;;4991892;28;20476;-80
2023/06/03 04:04:09;;;;;;;5.70;5.10;;;21.50;41.80;;;;;;4996595;28;20449;-81
2023/06/03 04:06:39;;;;;;;6.77;5.20;;;21.50;41.90;;;;;;4996355;28;20469;-81
2023/06/03 04:09:08;;;;;;;4.90;4.40;;;21.50;41.80;;;;;;4993058;28;20512;-81
2023/06/03 04:11:37;;;;;;;5.33;4.10;;;21.50;41.80;;;;;;4994681;28;20445;-82
2023/06/03 04:14:06;;;;;;;5.77;4.63;;;21.50;42.00;;;;;;4996147;28;20460;-80
2023/06/03 04:16:58;;;;;;;5.07;4.50;;;21.50;42.00;;;;;;4994856;28;20604;-81
2023/06/03 04:19:32;;;;;;;4.70;4.30;;;21.50;42.00;;;;;;4994257;28;20500;-81
2023/06/03 04:22:01;;;;;;;5.47;4.47;;;21.50;42.00;;;;;;4994965;28;20472;-81
2023/06/03 04:24:29;;;;;;;4.70;4.20;;;21.50;42.10;;;;;;4995424;28;20450;-81
2023/06/03 04:26:57;;;;;;;4.60;4.20;;;21.50;42.00;;;;;;4994063;28;20441;-81
2023/06/03 04:29:25;;;;;;;4.60;4.20;;;21.40;42.00;;;;;;4995553;28;20485;-80
2023/06/03 04:31:54;;;;;;;7.20;4.33;;;21.40;42.20;;;;;;4994823;28;20457;-81
2023/06/03 04:34:26;;;;;;;4.77;3.93;;;21.50;42.20;;;;;;4993833;28;20472;-80
2023/06/03 04:36:54;;;;;;;4.10;3.70;;;21.40;42.20;;;;;;4994998;28;20477;-80
2023/06/03 04:39:22;;;;;;;5.30;4.40;;;21.40;42.20;;;;;;4994887;28;20503;-80
2023/06/03 04:41:50;;;;;;;4.30;3.90;;;21.40;42.30;;;;;;4993785;28;20453;-79
2023/06/03 04:44:20;;;;;;;4.90;3.90;;;21.40;42.30;;;;;;4988928;28;20472;-81
2023/06/03 04:46:49;;;;;;;4.37;3.97;;;21.40;42.30;;;;;;4994664;28;20465;-81
2023/06/03 04:49:19;;;;;;;3.70;3.30;;;21.40;42.30;;;;;;4995255;28;20453;-82
2023/06/03 04:51:47;;;;;;;3.50;3.20;;;21.40;42.30;;;;;;4994527;28;20481;-80
2023/06/03 04:54:16;;;;;;;3.83;3.53;;;21.40;42.30;;;;;;4994379;28;20442;-81
2023/06/03 04:56:45;;;;;;;4.13;3.73;;;21.40;42.40;;;;;;4988766;28;20551;-80
2023/06/03 04:59:13;;;;;;;4.43;3.67;;;21.40;42.30;;;;;;4994024;28;20449;-81
2023/06/03 05:01:44;;;;;;;3.70;3.30;;;21.40;42.40;;;;;;4994364;28;20488;-81
2023/06/03 05:04:12;;;;;;;4.87;3.50;;;21.40;42.20;;;;;;4991647;28;20449;-80
2023/06/03 05:06:42;;;;;;;3.47;3.10;;;21.40;42.50;;;;;;4998396;28;20476;-80
2023/06/03 05:09:11;;;;;;;3.37;3.07;;;21.40;42.40;;;;;;5005242;28;20452;-81
2023/06/03 05:11:40;;;;;;;4.20;3.80;;;21.40;42.40;;;;;;5000275;28;20533;-81
2023/06/03 05:14:08;;;;;;;3.23;3.03;;;21.40;42.40;;;;;;4994848;28;20442;-81
2023/06/03 05:16:36;;;;;;;3.57;3.30;;;21.40;42.30;;;;;;4996013;28;20485;-81
2023/06/03 05:19:05;;;;;;;3.30;3.00;;;21.50;43.10;;;;;;4996762;28;20454;-81
2023/06/03 05:21:32;;;;;;;3.00;2.53;;;21.50;42.30;;;;;;5004342;28;20453;-81
2023/06/03 05:24:02;;;;;;;2.80;2.60;;;21.50;42.50;;;;;;5002603;28;20454;-82
2023/06/03 05:26:30;;;;;;;3.00;2.80;;;21.50;42.40;;;;;;5002332;28;20568;-81
2023/06/03 05:28:58;;;;;;;3.33;3.03;;;21.50;42.40;;;;;;5004769;28;20445;-82
2023/06/03 05:31:26;;;;;;;3.07;2.80;;;21.50;42.30;;;;;;5004009;28;20469;-82
2023/06/03 05:33:55;;;;;;;3.03;2.73;;;21.50;42.40;;;;;;4994888;28;20445;-82
2023/06/03 05:36:23;;;;;;;3.13;2.93;;;21.50;42.40;;;;;;5003523;28;20527;-83
2023/06/03 05:38:51;;;;;;;2.97;2.50;;;21.50;42.50;;;;;;4996021;28;20487;-83
2023/06/03 05:41:20;;;;;;;3.00;2.73;;;21.50;42.30;;;;;;4991656;28;20437;-82
2023/06/03 05:43:48;;;;;;;2.50;2.40;;;21.50;42.50;;;;;;4999249;28;20468;-78
2023/06/03 05:46:16;;;;;;;2.53;2.33;;;21.60;42.30;;;;;;4990176;28;20469;-82
2023/06/03 05:48:44;;;;;;;2.80;2.37;;;21.50;42.40;;;;;;5009984;28;20437;-84
2023/06/03 05:51:12;;;;;;;2.33;2.20;;;21.60;42.40;;;;;;5006384;28;20456;-82
2023/06/03 05:53:43;;;;;;;3.30;3.00;;;21.60;42.40;;;;;;4999714;28;20496;-82
2023/06/03 05:56:12;;;;;;;2.73;2.53;;;21.60;42.40;;;;;;5000072;28;20474;-82
2023/06/03 05:58:43;;;;;;;3.23;2.90;;;21.70;42.40;;;;;;4992199;28;20484;-79
2023/06/03 06:01:11;;;;;;;2.97;2.77;;;21.70;42.30;;;;;;4995446;28;20450;-79
2023/06/03 06:03:41;;;;;;;2.60;2.40;;;21.70;42.40;;;;;;4996259;28;20473;-79
2023/06/03 06:06:09;;;;;;;2.77;2.53;;;21.70;42.90;;;;;;4997239;28;20532;-79
2023/06/03 06:08:38;;;;;;;3.30;3.00;;;21.70;42.30;;;;;;4996339;28;20445;-79
2023/06/03 06:11:06;;;;;;;2.73;2.53;;;21.80;42.30;;;;;;4992838;28;20537;-79
2023/06/03 06:13:34;;;;;;;2.80;2.60;;;21.80;42.20;;;;;;4994043;28;20453;-80
2023/06/03 06:16:04;;;;;;;2.57;2.37;;;21.90;42.20;;;;;;4992137;28;21036;-79
2023/06/03 06:18:33;;;;;;;2.80;2.63;;;21.90;42.10;;;;;;4993877;28;20465;-78
2023/06/03 06:21:01;;;;;;;2.60;2.40;;;21.90;42.10;;;;;;4995091;28;20456;-79
2023/06/03 06:23:30;;;;;;;2.40;2.30;;;21.90;42.20;;;;;;4994386;28;20453;-79
2023/06/03 06:25:58;;;;;;;2.70;2.50;;;21.90;42.20;;;;;;4987573;28;20493;-79
2023/06/03 06:28:27;;;;;;;2.47;2.37;;;22.00;42.30;;;;;;4983943;28;20475;-76
2023/06/03 06:30:56;;;;;;;2.63;2.43;;;22.00;42.10;;;;;;4991208;28;20511;-78
2023/06/03 06:33:25;;;;;;;3.00;2.37;;;22.00;42.10;;;;;;4993806;28;20441;-79
2023/06/03 06:35:54;;;;;;;2.10;2.00;;;22.00;41.90;;;;;;4993591;28;20477;-78
2023/06/03 06:38:22;;;;;;;2.73;2.50;;;22.10;42.10;;;;;;4989303;28;20577;-77
2023/06/03 06:40:50;;;;;;;1.93;1.83;;;22.10;42.10;;;;;;4993570;28;20481;-78
2023/06/03 06:43:21;;;;;;;2.20;2.00;;;22.20;42.10;;;;;;4993860;28;20476;-78
2023/06/03 06:45:49;;;;;;;2.00;1.90;;;22.20;42.00;;;;;;4988240;28;20541;-79
2023/06/03 06:48:17;;;;;;;2.40;2.30;;;22.20;41.80;;;;;;4995230;28;20445;-79
2023/06/03 06:50:48;;;;;;;2.53;2.33;;;22.30;42.10;;;;;;4982611;28;20449;-78
2023/06/03 06:53:18;;;;;;;2.17;2.07;;;22.40;42.00;;;;;;4986073;28;20449;-77
2023/06/03 06:55:50;;;;;;;2.20;2.10;;;22.40;41.90;;;;;;4987054;28;20520;-79
2023/06/03 06:58:18;;;;;;;1.97;1.87;;;22.50;41.80;;;;;;4991670;28;20464;-79
2023/06/03 07:00:47;;;;;;;2.30;2.10;;;22.50;41.80;;;;;;4983364;28;20472;-80
2023/06/03 07:03:15;;;;;;;2.30;2.10;;;22.60;41.80;;;;;;4992928;28;20496;-79
2023/06/03 07:05:45;;;;;;;1.90;1.80;;;22.70;41.90;;;;;;4988206;28;20479;-79
2023/06/03 07:08:14;;;;;;;2.13;2.03;;;22.70;41.70;;;;;;4997803;28;20441;-78
2023/06/03 07:10:43;;;;;;;2.07;1.97;;;22.80;41.70;;;;;;4996780;28;20523;-79
2023/06/03 07:13:11;;;;;;;1.77;1.67;;;22.90;41.70;;;;;;4987975;28;20556;-79
2023/06/03 07:15:40;;;;;;;2.60;1.87;;;22.90;41.60;;;;;;4994211;28;20493;-79
2023/06/03 07:18:09;;;;;;;2.10;2.00;;;23.00;41.60;;;;;;4990903;28;20483;-80
2023/06/03 07:20:39;;;;;;;2.00;1.90;;;23.00;41.70;;;;;;4990131;28;20504;-78
2023/06/03 07:23:10;;;;;;;1.83;1.73;;;23.10;41.60;;;;;;4984525;28;20465;-78
2023/06/03 07:25:42;;;;;;;1.83;1.73;;;23.20;41.60;;;;;;4996403;28;20527;-79
2023/06/03 07:28:10;;;;;;;1.80;1.70;;;23.30;41.60;;;;;;4996395;28;20449;-78
2023/06/03 07:30:39;;;;;;;1.90;1.77;;;23.40;41.60;;;;;;4994043;28;20910;-80
2023/06/03 07:33:09;;;;;;;2.10;2.00;;;23.50;41.60;;;;;;4997163;28;20437;-79
2023/06/03 07:35:37;;;;;;;1.70;1.60;;;23.60;41.60;;;;;;4995355;28;20495;-78
2023/06/03 07:38:05;;;;;;;1.90;1.80;;;23.70;41.60;;;;;;4995534;28;20476;-77
2023/06/03 07:40:42;;;;;;;2.03;1.87;;;23.70;41.60;;;;;;4992995;28;20540;-78
2023/06/03 07:43:11;;;;;;;1.77;1.67;;;23.90;41.50;;;;;;4992775;28;20476;-78
2023/06/03 07:45:39;;;;;;;2.00;1.90;;;23.90;41.50;;;;;;4981436;28;20515;-78
2023/06/03 07:48:09;;;;;;;1.80;1.70;;;24.10;41.40;;;;;;4989402;28;20441;-79
2023/06/03 07:50:37;;;;;;;3.40;1.63;;;24.20;41.30;;;;;;4997032;28;20904;-78
2023/06/03 07:53:06;;;;;;;1.93;1.83;;;24.40;41.40;;;;;;4997377;28;20516;-78
2023/06/03 07:55:38;;;;;;;1.63;1.53;;;24.50;41.30;;;;;;4998052;28;20497;-79
2023/06/03 07:58:10;;;;;;;1.73;1.63;;;24.60;41.70;;;;;;4992705;28;20564;-79
2023/06/03 08:00:38;;;;;;;1.80;1.70;;;24.80;41.10;;;;;;4997663;28;20942;-79
2023/06/03 08:03:18;;;;;;;1.33;1.33;;;25.00;41.10;;;;;;4996609;28;20445;-79
2023/06/03 08:05:50;;;;;;;1.53;1.43;;;25.10;40.90;;;;;;4991012;28;20477;-79
2023/06/03 08:08:19;;;;;;;1.90;1.80;;;25.30;40.80;;;;;;4996580;28;20420;-78
2023/06/03 08:10:48;;;;;;;1.83;1.70;;;25.50;40.70;;;;;;4986776;28;20432;-79
2023/06/03 08:13:20;;;;;;;1.53;1.43;;;25.70;40.70;;;;;;4992720;28;20987;-79
2023/06/03 08:15:48;;;;;;;1.43;1.43;;;25.80;40.50;;;;;;4997254;28;20447;-79
2023/06/03 08:18:23;;;;;;;1.30;1.30;;;25.90;40.30;;;;;;4995362;28;20501;-79
2023/06/03 08:20:51;;;;;;;1.73;1.63;;;26.00;40.20;;;;;;4992284;28;20436;-79
2023/06/03 08:23:19;;;;;;;2.83;1.40;;;26.10;40.10;;;;;;4991402;28;20428;-79
2023/06/03 08:25:47;;;;;;;1.60;1.60;;;26.20;40.00;;;;;;4996787;28;20556;-79
2023/06/03 08:28:16;;;;;;;1.60;1.50;;;26.30;40.00;;;;;;4998058;28;20548;-79
2023/06/03 08:30:44;;;;;;;1.63;1.50;;;26.40;40.00;;;;;;4999151;28;20476;-79
2023/06/03 08:33:13;;;;;;;1.20;1.20;;;26.60;40.00;;;;;;4991662;28;20448;-80
2023/06/03 08:35:41;;;;;;;1.80;1.70;;;26.70;39.90;;;;;;4993529;28;20458;-78
2023/06/03 08:38:09;;;;;;;1.60;1.50;;;26.80;39.70;;;;;;4987893;28;20479;-79
2023/06/03 08:40:37;;;;;;;1.70;1.60;;;27.00;39.70;;;;;;4988740;28;20445;-79
2023/06/03 08:43:04;;;;;;;1.60;1.50;;;27.10;39.70;;;;;;4993557;28;20507;-78
2023/06/03 08:45:37;;;;;;;1.50;1.40;;;27.20;39.50;;;;;;4994231;28;20497;-78
2023/06/03 08:48:08;;;;;;;1.70;1.60;;;27.40;39.50;;;;;;4995261;28;20533;-79
2023/06/03 08:50:36;;;;;;;1.90;1.43;;;27.50;39.30;;;;;;4994677;28;20434;-79
2023/06/03 08:53:08;;;;;;;1.53;1.53;;;27.70;39.30;;;;;;4994218;28;20457;-79
2023/06/03 08:55:37;;;;;;;1.70;1.60;;;27.80;39.10;;;;;;4995246;28;20444;-78
2023/06/03 08:58:10;;;;;;;1.47;1.37;;;27.90;39.00;;;;;;4998634;28;20450;-78
2023/06/03 09:00:40;;;;;;;1.60;1.50;;;28.10;38.90;;;;;;4996219;28;20499;-78
2023/06/03 09:03:08;;;;;;;1.40;1.40;;;28.20;38.80;;;;;;4995521;28;20487;-79
2023/06/03 09:05:36;;;;;;;1.50;1.40;;;28.40;38.70;;;;;;4991629;28;20466;-79
2023/06/03 09:08:04;;;;;;;1.53;1.43;;;28.60;38.70;;;;;;4994743;28;20486;-78
2023/06/03 09:10:33;;;;;;;1.40;1.30;;;28.70;38.40;;;;;;4990991;28;20468;-79
2023/06/03 09:13:02;;;;;;;1.70;1.43;;;28.90;38.40;;;;;;4992362;28;20499;-78
2023/06/03 09:15:31;;;;;;;1.30;1.30;;;29.10;38.30;;;;;;4986952;28;20475;-78
2023/06/03 09:18:00;;;;;;;1.50;1.40;;;29.20;38.10;;;;;;4994425;28;20970;-79
2023/06/03 09:20:29;;;;;;;1.33;1.23;;;29.50;38.00;;;;;;4986513;28;20990;-78
2023/06/03 09:22:57;;;;;;;1.50;1.40;;;29.60;37.90;;;;;;4991750;28;20515;-78
2023/06/03 09:25:24;;;;;;;1.40;1.30;;;29.70;37.80;;;;;;4994823;28;20540;-78
2023/06/03 09:27:52;;;;;;;1.20;1.20;;;29.90;37.60;;;;;;4995649;28;20537;-78
2023/06/03 09:30:20;;;;;;;1.40;1.40;;;30.10;37.50;;;;;;4986298;28;20462;-79
2023/06/03 09:32:49;;;;;;;1.10;1.10;;;30.30;37.40;;;;;;4994095;28;20449;-77
2023/06/03 09:35:20;;;;;;;1.10;1.10;;;30.50;37.30;;;;;;4986620;28;20484;-78
2023/06/03 09:37:58;;;;;;;1.33;1.13;;;30.60;37.10;;;;;;4994689;28;20537;-78
2023/06/03 09:40:27;;;;;;;1.20;1.20;;;30.80;36.90;;;;;;4994595;28;20512;-79
2023/06/03 09:42:55;;;;;;;1.10;1.10;;;31.00;36.80;;;;;;4982659;28;20432;-78
2023/06/03 09:45:27;;;;;;;2.17;1.43;;;31.10;36.60;;;;;;4985656;28;21054;-78
2023/06/03 09:47:56;;;;;;;1.30;1.30;;;31.30;36.50;;;;;;4986064;28;20874;-78
2023/06/03 09:50:27;;;;;;;1.10;1.10;;;31.50;36.30;;;;;;4993359;28;20483;-78
2023/06/03 09:52:55;;;;;;;1.03;1.03;;;31.60;36.20;;;;;;4993618;28;20429;-78
2023/06/03 09:55:29;;;;;;;1.00;1.00;;;31.80;36.10;;;;;;4987660;28;20444;-80
2023/06/03 09:58:04;;;;;;;1.10;1.10;;;32.00;36.00;;;;;;4997901;28;20946;-80
2023/06/03 10:00:33;;;;;;;1.50;1.40;;;32.20;35.80;;;;;;4988573;28;20486;-78
2023/06/03 10:03:08;;;;;;;1.53;1.40;;;32.30;35.70;;;;;;4990500;28;20450;-79
2023/06/03 10:05:38;;;;;;;2.03;1.10;;;32.50;35.50;;;;;;4987689;28;20555;-78
2023/06/03 10:08:07;;;;;;;1.83;1.30;;;32.60;35.30;;;;;;4994299;28;20454;-78
2023/06/03 10:10:35;;;;;;;1.47;1.20;;;32.80;35.20;;;;;;4997420;28;20442;-80
2023/06/03 10:13:27;;;;;;;2.13;1.10;;;33.00;35.10;;;;;;4996479;28;20551;-79
2023/06/03 10:16:13;;;;;;;1.27;1.27;;;33.20;34.90;;;;;;4981242;28;20460;-80
2023/06/03 10:18:42;;;;;;;1.10;1.10;;;33.40;34.80;;;;;;4997573;28;20445;-80
2023/06/03 10:21:12;;;;;;;1.37;1.37;;;33.50;34.60;;;;;;4995437;28;20529;-80
2023/06/03 10:23:41;;;;;;;0.90;0.90;;;33.80;34.50;;;;;;4991691;28;20475;-80
2023/06/03 10:26:09;;;;;;;1.00;1.00;;;33.90;34.20;;;;;;4996387;28;20484;-80
2023/06/03 10:28:37;;;;;;;1.23;1.23;;;34.10;34.20;;;;;;4987762;28;20433;-81
2023/06/03 10:31:07;;;;;;;1.10;1.10;;;34.30;34.00;;;;;;4996497;28;20433;-81
2023/06/03 10:33:37;;;;;;;1.30;1.30;;;34.40;33.80;;;;;;4994568;28;20866;-81
2023/06/03 10:36:06;;;;;;;1.03;1.03;;;34.60;33.80;;;;;;4993303;28;20469;-81
2023/06/03 10:38:36;;;;;;;1.00;1.00;;;34.80;33.90;;;;;;4997750;28;20555;-80
2023/06/03 10:41:04;;;;;;;1.43;1.07;;;35.00;33.80;;;;;;4993854;28;20477;-80
2023/06/03 10:43:32;;;;;;;1.23;1.23;;;35.10;33.70;;;;;;4987781;28;20496;-78
2023/06/03 10:46:00;;;;;;;1.27;1.03;;;35.30;33.80;;;;;;4985281;28;20559;-78
2023/06/03 10:48:28;;;;;;;1.00;1.00;;;35.50;33.70;;;;;;4989645;28;20474;-81
2023/06/03 10:51:01;;;;;;;1.93;1.30;;;35.70;33.80;;;;;;4983095;28;20466;-78
2023/06/03 10:53:36;;;;;;;1.13;1.03;;;35.80;33.40;;;;;;4983470;28;20488;-77
2023/06/03 10:56:05;;;;;;;1.40;1.30;;;36.00;33.30;;;;;;4978549;28;20484;-79
2023/06/03 10:58:33;;;;;;;2.20;1.20;;;36.20;33.70;;;;;;4973249;28;20430;-77
2023/06/03 11:01:02;;;;;;;2.30;1.10;;;36.30;33.00;;;;;;4977668;28;20470;-78
2023/06/03 11:03:31;;;;;;;1.40;1.30;;;36.50;32.90;;;;;;4985802;28;20449;-80
2023/06/03 11:06:37;;;;;;;1.10;1.00;;;36.60;32.70;;;;;;4995324;28;20469;-80
2023/06/03 11:09:08;;;;;;;1.43;1.33;;;36.80;32.50;;;;;;4982859;28;20445;-78
2023/06/03 11:12:05;;;;;;;1.37;1.37;;;37.10;32.30;;;;;;4992405;28;20499;-79
2023/06/03 11:14:55;;;;;;;5.30;1.30;;;37.30;32.20;;;;;;4989202;28;20449;-78
2023/06/03 11:17:27;;;;;;;1.40;1.30;;;37.70;31.90;;;;;;4995065;28;20468;-79
2023/06/03 11:19:58;;;;;;;3.27;1.47;;;38.60;30.80;;;;;;4996937;28;20476;-79
2023/06/03 11:22:40;;;;;;;4.20;1.67;;;39.50;29.90;;;;;;4992348;28;20555;-78
2023/06/03 11:25:25;;;;;;;1.23;1.10;;;40.30;29.20;;;;;;4976464;28;20899;-79
2023/06/03 11:27:53;;;;;;;2.60;1.40;;;40.90;28.50;;;;;;4973908;28;20446;-79
2023/06/03 11:30:21;;;;;;;1.40;1.30;;;41.60;28.00;;;;;;4982380;28;20499;-79
2023/06/03 11:33:08;;;;;;;0.90;0.90;;;42.00;27.50;;;;;;4992962;28;20547;-79
2023/06/03 11:35:36;;;;;;;2.83;1.10;;;42.60;27.20;;;;;;4989929;28;20488;-78
2023/06/03 11:38:04;;;;;;;1.33;1.17;;;43.20;26.50;;;;;;4974656;28;20484;-79
2023/06/03 11:40:46;;;;;;;2.60;1.10;;;43.60;25.90;;;;;;4978230;28;20477;-78
2023/06/03 11:43:14;;;;;;;1.30;1.20;;;44.00;25.80;;;;;;4977451;28;20492;-77
2023/06/03 11:45:42;;;;;;;1.43;1.30;;;44.60;25.50;;;;;;4984658;28;20493;-78
2023/06/03 11:48:11;;;;;;;1.47;1.40;;;45.00;25.10;;;;;;4991879;28;20515;-78
2023/06/03 11:50:47;;;;;;;1.40;1.30;;;45.30;24.70;;;;;;4992030;28;20461;-78
2023/06/03 11:53:31;;;;;;;2.30;1.33;;;45.70;24.50;;;;;;4986605;28;20474;-78
2023/06/03 11:56:05;;;;;;;1.20;1.20;;;45.90;24.30;;;;;;4992880;28;20453;-79
2023/06/03 11:58:34;;;;;;;1.50;1.40;;;46.10;24.50;;;;;;5006914;28;20464;-79
2023/06/03 12:01:06;;;;;;;1.93;1.50;;;46.30;23.90;;;;;;5001538;28;20457;-78
2023/06/03 12:03:35;;;;;;;1.20;1.10;;;46.50;23.90;;;;;;4995467;28;20421;-78
2023/06/03 12:06:05;;;;;;;1.03;1.03;;;46.50;23.80;;;;;;4995275;28;20462;-77
2023/06/03 12:08:43;;;;;;;1.50;1.40;;;46.40;23.90;;;;;;4996653;28;20445;-79
2023/06/03 12:11:24;;;;;;;1.10;1.10;;;46.10;24.00;;;;;;5004347;28;20433;-78
2023/06/03 12:13:52;;;;;;;1.53;1.43;;;45.70;24.20;;;;;;4996805;28;20433;-77
2023/06/03 12:16:31;;;;;;;2.80;1.37;;;45.50;24.60;;;;;;4997912;28;20539;-78
2023/06/03 12:19:00;;;;;;;2.17;1.27;;;45.00;24.70;;;;;;4977038;28;20441;-78
2023/06/03 12:21:28;;;;;;;2.13;1.20;;;44.80;24.90;;;;;;4977507;28;20571;-78
2023/06/03 12:23:57;;;;;;;2.87;1.50;;;44.50;25.30;;;;;;4989007;28;20445;-79
2023/06/03 12:26:26;;;;;;;3.03;1.10;;;44.20;25.50;;;;;;4990464;28;20532;-78
2023/06/03 12:29:04;;;;;;;1.50;1.40;;;44.00;25.70;;;;;;4977205;28;20473;-78
2023/06/03 12:31:32;;;;;;;1.57;1.47;;;43.70;25.80;;;;;;4983349;28;20441;-78
2023/06/03 12:34:01;;;;;;;2.50;1.27;;;43.60;25.90;;;;;;4982213;28;20453;-78
2023/06/03 12:36:47;;;;;;;1.37;1.27;;;43.40;26.00;;;;;;4980240;28;20564;-77
2023/06/03 12:39:15;;;;;;;2.80;1.60;;;43.10;26.30;;;;;;4997573;28;20476;-78
2023/06/03 12:41:52;;;;;;;1.30;1.20;;;43.00;26.30;;;;;;4988057;28;20464;-78
2023/06/03 12:44:20;;;;;;;1.43;1.33;;;42.70;26.40;;;;;;4980158;28;20456;-78
2023/06/03 12:47:01;;;;;;;1.40;1.30;;;42.30;26.70;;;;;;4977226;28;20556;-78
2023/06/03 12:49:30;;;;;;;1.20;1.20;;;41.90;26.80;;;;;;4992888;28;20448;-78
2023/06/03 12:52:19;;;;;;;1.50;1.50;;;41.80;27.20;;;;;;4984790;28;20446;-79
2023/06/03 12:54:50;;;;;;;4.03;1.30;;;41.50;27.20;;;;;;4983554;28;20450;-78
2023/06/03 12:57:21;;;;;;;1.57;1.47;;;41.50;27.50;;;;;;4979342;28;20935;-79